createdAt,value
2023-11-24T00:00:56.681Z,9.90
2023-11-24T00:03:25.916Z,10.00
2023-11-24T00:05:54.451Z,10.00
2023-11-24T00:08:24.394Z,10.10
2023-11-24T00:10:52.812Z,10.00
2023-11-24T00:13:24.252Z,9.90
2023-11-24T00:15:54.021Z,9.90
2023-11-24T00:21:49.030Z,9.90
2023-11-24T00:24:48.196Z,9.90
2023-11-24T00:31:07.648Z,9.90
2023-11-24T00:33:36.408Z,9.90
2023-11-24T00:36:06.871Z,9.90
2023-11-24T00:38:38.058Z,9.80
2023-11-24T00:41:16.592Z,9.80
2023-11-24T00:43:47.019Z,9.70
2023-11-24T00:46:18.780Z,9.70
2023-11-24T00:48:47.196Z,9.70
2023-11-24T00:51:22.622Z,9.70
2023-11-24T00:53:52.682Z,9.80
2023-11-24T00:57:19.071Z,9.90
2023-11-24T01:00:04.449Z,9.90
2023-11-24T01:06:07.202Z,9.90
2023-11-24T01:08:35.508Z,9.80
2023-11-24T01:11:03.656Z,9.90
2023-11-24T01:13:34.414Z,9.80
2023-11-24T01:16:05.520Z,9.70
2023-11-24T01:18:39.400Z,9.60
2023-11-24T01:21:10.743Z,9.60
2023-11-24T01:23:42.053Z,9.60
2023-11-24T01:26:13.059Z,9.60
2023-11-24T01:32:03.359Z,9.60
2023-11-24T01:35:05.649Z,9.50
2023-11-24T01:41:15.640Z,9.40
2023-11-24T01:44:16.806Z,9.30
2023-11-24T01:46:48.160Z,9.30
2023-11-24T01:49:21.018Z,9.20
2023-11-24T01:51:50.096Z,9.00
2023-11-24T01:54:20.710Z,9.00
2023-11-24T01:56:49.260Z,9.00
2023-11-24T01:59:20.657Z,9.10
2023-11-24T02:01:52.688Z,9.00
2023-11-24T02:04:48.659Z,9.00
2023-11-24T02:07:16.941Z,9.00
2023-11-24T02:10:04.918Z,8.90
2023-11-24T02:12:36.991Z,9.00
2023-11-24T02:15:10.373Z,9.10
2023-11-24T02:17:46.104Z,9.10
2023-11-24T02:20:16.729Z,9.10
2023-11-24T02:22:46.322Z,9.10
2023-11-24T02:25:16.689Z,9.10
2023-11-24T02:27:45.396Z,9.10
2023-11-24T02:30:13.708Z,9.10
2023-11-24T02:32:41.861Z,9.00
2023-11-24T02:35:11.155Z,9.00
2023-11-24T02:37:42.555Z,8.90
2023-11-24T02:40:13.459Z,9.00
2023-11-24T02:45:57.455Z,8.90
2023-11-24T02:48:58.639Z,8.90
2023-11-24T02:51:26.920Z,8.90
2023-11-24T02:55:03.629Z,8.80
2023-11-24T02:57:34.256Z,8.70
2023-11-24T03:01:17.664Z,8.60
2023-11-24T03:03:46.186Z,8.60
2023-11-24T03:06:19.369Z,8.60
2023-11-24T03:15:49.028Z,8.70
2023-11-24T03:18:20.837Z,8.60
2023-11-24T03:20:51.640Z,8.60
2023-11-24T03:23:51.322Z,8.60
2023-11-24T03:27:16.956Z,8.60
2023-11-24T03:30:45.819Z,8.50
2023-11-24T03:33:27.758Z,8.50
2023-11-24T03:37:02.330Z,8.40
2023-11-24T03:42:45.952Z,8.50
2023-11-24T03:45:17.440Z,8.50
2023-11-24T03:47:46.404Z,8.40
2023-11-24T03:50:29.110Z,8.30
2023-11-24T03:53:21.230Z,8.20
2023-11-24T03:55:50.581Z,8.20
2023-11-24T03:58:19.516Z,8.30
2023-11-24T04:00:57.368Z,8.30
2023-11-24T04:03:31.479Z,8.30
2023-11-24T04:06:10.619Z,8.30
2023-11-24T04:09:28.136Z,8.30
2023-11-24T04:12:18.279Z,8.20
2023-11-24T04:14:46.883Z,8.10
2023-11-24T04:20:36.312Z,8.00
2023-11-24T04:23:14.912Z,8.00
2023-11-24T04:23:20.625Z,8.00
2023-11-24T04:25:49.999Z,8.00
2023-11-24T04:28:18.953Z,7.90
2023-11-24T04:31:10.835Z,7.90
2023-11-24T04:33:47.951Z,7.90
2023-11-24T04:45:16.254Z,8.00
2023-11-24T04:48:04.757Z,7.90
2023-11-24T04:50:43.904Z,7.90
2023-11-24T04:53:17.403Z,7.90
2023-11-24T05:02:52.588Z,8.00
2023-11-24T05:05:22.672Z,7.90
2023-11-24T05:12:10.304Z,7.80
2023-11-24T05:15:26.781Z,7.70
2023-11-24T05:17:59.198Z,7.80
2023-11-24T05:20:27.729Z,7.70
2023-11-24T05:23:17.130Z,7.70
2023-11-24T05:25:46.023Z,7.70
2023-11-24T05:28:18.129Z,7.80
2023-11-24T05:30:47.062Z,7.80
2023-11-24T05:33:17.001Z,7.80
2023-11-24T05:35:45.580Z,7.80
2023-11-24T05:38:15.512Z,7.80
2023-11-24T05:40:47.662Z,7.90
2023-11-24T05:43:16.361Z,7.90
2023-11-24T05:45:44.970Z,7.80
2023-11-24T05:48:24.335Z,7.80
2023-11-24T05:51:01.934Z,7.80
2023-11-24T05:56:43.290Z,7.70
2023-11-24T05:59:13.253Z,7.70
2023-11-24T06:01:43.776Z,7.70
2023-11-24T06:04:16.963Z,7.60
2023-11-24T06:06:48.906Z,7.70
2023-11-24T06:09:17.262Z,7.70
2023-11-24T06:11:45.752Z,7.60
2023-11-24T06:14:14.432Z,7.70
2023-11-24T06:16:43.141Z,7.70
2023-11-24T06:19:13.406Z,7.70
2023-11-24T06:21:42.116Z,7.60
2023-11-24T06:24:19.593Z,7.70
2023-11-24T06:26:48.459Z,7.70
2023-11-24T06:29:37.464Z,7.50
2023-11-24T06:32:07.282Z,7.60
2023-11-24T06:34:37.060Z,7.50
2023-11-24T06:37:05.795Z,7.50
2023-11-24T06:39:34.242Z,7.60
2023-11-24T06:42:22.792Z,7.60
2023-11-24T06:45:00.422Z,7.60
2023-11-24T06:50:57.234Z,7.50
2023-11-24T06:53:39.593Z,7.50
2023-11-24T06:56:10.890Z,7.60
2023-11-24T06:58:39.198Z,7.50
2023-11-24T07:01:07.291Z,7.50
2023-11-24T07:03:35.828Z,7.40
2023-11-24T07:06:07.981Z,7.40
2023-11-24T07:08:36.777Z,7.40
2023-11-24T07:11:06.150Z,7.40
2023-11-24T07:13:34.191Z,7.50
2023-11-24T07:16:02.258Z,7.50
2023-11-24T07:18:30.471Z,7.50
2023-11-24T07:21:02.022Z,7.60
2023-11-24T07:23:31.673Z,7.60
2023-11-24T07:25:59.780Z,7.70
2023-11-24T07:28:28.033Z,7.80
2023-11-24T07:30:56.034Z,7.90
2023-11-24T07:33:25.494Z,8.00
2023-11-24T07:35:53.453Z,7.90
2023-11-24T07:38:21.414Z,7.90
2023-11-24T07:40:50.814Z,7.90
2023-11-24T07:43:18.950Z,7.90
2023-11-24T07:45:50.341Z,7.90
2023-11-24T07:48:19.148Z,7.90
2023-11-24T07:50:46.984Z,8.00
2023-11-24T07:53:15.735Z,8.10
2023-11-24T07:55:44.059Z,8.20
2023-11-24T07:58:13.673Z,8.30
2023-11-24T08:00:41.672Z,8.40
2023-11-24T08:03:10.001Z,8.50
2023-11-24T08:05:38.081Z,8.40
2023-11-24T08:08:06.832Z,8.40
2023-11-24T08:10:34.849Z,8.50
2023-11-24T08:13:03.669Z,8.60
2023-11-24T08:15:34.199Z,8.80
2023-11-24T08:18:02.592Z,8.80
2023-11-24T08:20:30.675Z,9.00
2023-11-24T08:22:59.816Z,9.00
2023-11-24T08:25:28.144Z,9.10
2023-11-24T08:27:58.330Z,9.20
2023-11-24T08:30:26.800Z,9.20
2023-11-24T08:32:56.337Z,9.10
2023-11-24T08:35:24.664Z,9.20
2023-11-24T08:37:53.152Z,9.20
2023-11-24T08:40:23.090Z,9.40
2023-11-24T08:42:52.132Z,9.60
2023-11-24T08:45:20.371Z,9.70
2023-11-24T08:47:50.026Z,9.80
2023-11-24T08:50:19.914Z,9.80
2023-11-24T08:52:51.725Z,9.90
2023-11-24T08:55:24.297Z,10.00
2023-11-24T08:57:52.985Z,10.10
2023-11-24T09:00:21.599Z,10.30
2023-11-24T09:02:50.557Z,10.40
2023-11-24T09:05:28.515Z,10.50
2023-11-24T09:08:03.788Z,10.50
2023-11-24T09:10:37.874Z,10.60
2023-11-24T09:13:17.171Z,10.70
2023-11-24T09:16:00.444Z,10.60
2023-11-24T09:18:28.536Z,10.70
2023-11-24T09:21:01.175Z,10.70
2023-11-24T09:23:29.775Z,10.80
2023-11-24T09:26:18.228Z,10.90
2023-11-24T09:28:46.503Z,11.10
2023-11-24T09:31:17.582Z,11.20
2023-11-24T09:33:46.123Z,11.30
2023-11-24T09:36:16.009Z,11.40
2023-11-24T09:38:48.177Z,11.60
2023-11-24T09:41:18.747Z,11.60
2023-11-24T09:43:46.980Z,11.70
2023-11-24T09:46:15.557Z,11.80
2023-11-24T09:48:44.866Z,11.80
2023-11-24T09:51:18.446Z,12.00
2023-11-24T09:53:47.315Z,12.00
2023-11-24T09:56:15.574Z,12.10
2023-11-24T09:58:43.867Z,12.20
2023-11-24T10:01:25.854Z,12.20
2023-11-24T10:04:00.458Z,12.30
2023-11-24T10:07:07.298Z,12.40
2023-11-24T10:13:38.792Z,12.60
2023-11-24T10:16:16.931Z,12.70
2023-11-24T10:18:45.076Z,12.80
2023-11-24T10:21:23.797Z,12.90
2023-11-24T10:23:59.964Z,13.00
2023-11-24T10:26:28.396Z,13.10
2023-11-24T10:28:59.015Z,13.20
2023-11-24T10:31:32.168Z,13.20
2023-11-24T10:34:01.456Z,13.30
2023-11-24T10:36:31.957Z,13.40
2023-11-24T10:39:04.172Z,13.40
2023-11-24T10:41:41.932Z,13.60
2023-11-24T10:44:15.864Z,13.60
2023-11-24T10:46:49.357Z,13.60
2023-11-24T10:49:26.588Z,13.70
2023-11-24T10:52:03.598Z,13.80
2023-11-24T10:54:43.699Z,13.80
2023-11-24T10:57:26.825Z,13.90
2023-11-24T10:59:58.677Z,14.00
2023-11-24T11:02:31.090Z,14.00
2023-11-24T11:05:06.640Z,14.10
2023-11-24T11:07:54.760Z,14.20
2023-11-24T11:10:28.103Z,14.30
2023-11-24T11:13:05.424Z,14.20
2023-11-24T11:15:38.003Z,14.30
2023-11-24T11:18:10.749Z,14.40
2023-11-24T11:20:39.646Z,14.50
2023-11-24T11:23:13.542Z,14.60
2023-11-24T11:26:06.076Z,14.70
2023-11-24T11:29:07.542Z,14.80
2023-11-24T11:31:40.079Z,15.00
2023-11-24T11:39:14.093Z,15.00
2023-11-24T11:46:18.786Z,15.30
2023-11-24T12:16:06.905Z,16.20
2023-11-24T12:19:05.813Z,16.40
2023-11-24T12:22:40.858Z,16.40
2023-11-24T12:33:57.193Z,16.80
2023-11-24T12:41:42.362Z,17.10
2023-11-24T12:53:28.613Z,16.90
2023-11-24T12:57:13.176Z,17.00
2023-11-24T13:05:11.111Z,16.80
2023-11-24T13:13:45.476Z,16.80
2023-11-24T13:33:22.503Z,16.50
2023-11-24T13:41:18.843Z,16.30
2023-11-24T13:53:59.513Z,16.10
2023-11-24T14:02:01.426Z,16.00
2023-11-24T14:18:03.577Z,15.90
2023-11-24T14:21:18.602Z,15.80
2023-11-24T14:24:17.230Z,15.80
2023-11-24T14:26:50.767Z,15.80
2023-11-24T14:29:43.662Z,15.70
2023-11-24T14:32:19.370Z,15.70
2023-11-24T14:35:22.214Z,15.70
2023-11-24T14:46:43.611Z,15.70
2023-11-24T15:01:43.473Z,15.60
2023-11-24T15:23:26.990Z,15.50
2023-11-24T16:04:57.761Z,14.00
2023-11-24T16:07:35.970Z,14.00
2023-11-24T16:10:31.244Z,13.90
2023-11-24T16:13:14.088Z,13.90
2023-11-24T16:16:08.367Z,13.90
2023-11-24T16:18:55.605Z,13.80
2023-11-24T16:21:26.748Z,13.70
2023-11-24T16:23:59.272Z,13.70
2023-11-24T16:27:05.376Z,13.60
2023-11-24T16:29:34.666Z,13.50
2023-11-24T16:32:40.846Z,13.50
2023-11-24T16:35:13.206Z,13.40
2023-11-24T16:38:18.127Z,13.40
2023-11-24T16:40:47.555Z,13.30
2023-11-24T16:43:21.857Z,13.20
2023-11-24T16:45:51.501Z,13.20
2023-11-24T16:48:21.771Z,13.20
2023-11-24T16:50:53.296Z,13.10
2023-11-24T16:53:29.193Z,13.10
2023-11-24T16:55:57.801Z,13.10
2023-11-24T16:58:35.422Z,13.00
2023-11-24T17:01:09.504Z,13.10
2023-11-24T17:03:46.062Z,13.10
2023-11-24T17:07:05.309Z,13.10
2023-11-24T17:09:35.094Z,13.10
2023-11-24T17:12:27.723Z,13.10
2023-11-24T17:15:33.098Z,13.10
2023-11-24T17:18:02.831Z,13.10
2023-11-24T17:20:30.925Z,13.00
2023-11-24T17:22:58.938Z,13.00
2023-11-24T17:25:37.415Z,12.90
2023-11-24T17:29:03.534Z,12.80
2023-11-24T17:31:35.292Z,12.90
2023-11-24T17:34:03.633Z,12.90
2023-11-24T17:36:31.860Z,12.90
2023-11-24T17:39:16.502Z,12.90
2023-11-24T17:41:46.222Z,12.80
2023-11-24T17:44:17.440Z,12.80
2023-11-24T17:46:47.182Z,12.80
2023-11-24T17:49:42.482Z,12.70
2023-11-24T17:52:16.686Z,12.60
2023-11-24T17:55:06.768Z,12.50
2023-11-24T17:57:49.940Z,12.50
2023-11-24T18:00:26.295Z,12.50
2023-11-24T18:03:55.966Z,12.50
2023-11-24T18:06:36.466Z,12.50
2023-11-24T18:13:37.174Z,12.40
2023-11-24T18:20:31.299Z,12.30
2023-11-24T18:27:11.186Z,12.30
2023-11-24T18:34:13.156Z,12.20
2023-11-24T18:41:07.133Z,12.00
2023-11-24T18:43:40.501Z,12.00
2023-11-24T18:46:13.470Z,12.00
2023-11-24T18:49:25.455Z,11.90
2023-11-24T18:51:58.222Z,11.90
2023-11-24T19:02:54.709Z,11.70
2023-11-24T19:05:55.651Z,11.60
2023-11-24T19:08:27.566Z,11.50
2023-11-24T19:11:14.198Z,11.50
2023-11-24T19:14:45.368Z,11.40
2023-11-24T19:25:58.860Z,11.40
2023-11-24T19:32:53.430Z,11.40
2023-11-24T19:35:35.137Z,11.30
2023-11-24T19:42:41.498Z,11.20
2023-11-24T19:46:20.454Z,11.20
2023-11-24T19:49:20.448Z,11.10
2023-11-24T19:52:01.901Z,11.20
2023-11-24T19:54:30.580Z,11.20
2023-11-24T19:57:22.330Z,11.20
2023-11-24T20:00:13.457Z,11.20
2023-11-24T20:02:48.785Z,11.20
2023-11-24T20:09:07.370Z,11.10
2023-11-24T20:12:04.817Z,11.10
2023-11-24T20:14:34.575Z,11.00
2023-11-24T20:17:56.687Z,11.00
2023-11-24T20:48:46.143Z,10.70
2023-11-24T20:51:34.230Z,10.60
2023-11-24T20:54:04.970Z,10.50
2023-11-24T20:56:34.202Z,10.50
2023-11-24T20:59:29.596Z,10.50
2023-11-24T21:01:58.606Z,10.50
2023-11-24T21:04:27.280Z,10.50
2023-11-24T21:06:59.149Z,10.40
2023-11-24T21:09:29.517Z,10.30
2023-11-24T21:11:58.981Z,10.30
2023-11-24T21:14:28.873Z,10.20
2023-11-24T21:16:57.932Z,10.20
2023-11-24T21:19:26.802Z,10.10
2023-11-24T21:21:56.611Z,10.00
2023-11-24T21:24:26.138Z,9.90
2023-11-24T21:26:54.511Z,9.90
2023-11-24T21:29:23.756Z,9.90
2023-11-24T21:31:52.065Z,10.00
2023-11-24T21:34:20.406Z,10.00
2023-11-24T21:36:48.818Z,9.90
2023-11-24T21:39:19.123Z,10.00
2023-11-24T21:41:53.398Z,10.10
2023-11-24T21:48:11.280Z,9.90
2023-11-24T21:50:40.297Z,9.90
2023-11-24T21:53:29.034Z,9.90
2023-11-24T21:58:48.628Z,10.00
2023-11-24T22:00:19.617Z,9.90
2023-11-24T22:45:03.635Z,9.50
2023-11-24T22:51:32.329Z,9.50
2023-11-24T22:58:20.020Z,9.50
2023-11-24T23:10:02.732Z,9.50
2023-11-24T23:12:31.642Z,9.40
2023-11-24T23:18:22.182Z,9.40
2023-11-24T23:20:58.995Z,9.30
2023-11-24T23:30:19.326Z,9.30
2023-11-24T23:41:24.496Z,9.30
2023-11-24T23:45:15.694Z,9.30
2023-11-24T23:51:32.136Z,9.20
2023-11-24T23:54:06.586Z,9.20
2023-11-24T23:56:53.687Z,9.20
